sensor_id;sensor_type;location;lat;lon;timestamp;temperature;humidity
9973;DHT22;5027;53.560;10.062;2023-05-07T00:01:48;14.60;99.90
9973;DHT22;5027;53.560;10.062;2023-05-07T00:04:15;14.50;99.90
9973;DHT22;5027;53.560;10.062;2023-05-07T00:06:42;14.50;99.90
9973;DHT22;5027;53.560;10.062;2023-05-07T00:09:09;14.50;99.90
9973;DHT22;5027;53.560;10.062;2023-05-07T00:11:35;14.50;99.90
9973;DHT22;5027;53.560;10.062;2023-05-07T00:14:02;14.50;99.90
9973;DHT22;5027;53.560;10.062;2023-05-07T00:16:29;14.40;99.90
9973;DHT22;5027;53.560;10.062;2023-05-07T00:18:56;14.40;99.90
9973;DHT22;5027;53.560;10.062;2023-05-07T00:21:23;14.40;99.90
9973;DHT22;5027;53.560;10.062;2023-05-07T00:23:53;14.40;99.90
9973;DHT22;5027;53.560;10.062;2023-05-07T00:26:20;14.50;99.90
9973;DHT22;5027;53.560;10.062;2023-05-07T00:28:49;14.50;99.90
9973;DHT22;5027;53.560;10.062;2023-05-07T00:31:16;14.40;99.90
9973;DHT22;5027;53.560;10.062;2023-05-07T00:33:44;14.50;99.90
9973;DHT22;5027;53.560;10.062;2023-05-07T00:36:11;14.50;99.90
9973;DHT22;5027;53.560;10.062;2023-05-07T00:38:37;14.50;99.90
9973;DHT22;5027;53.560;10.062;2023-05-07T00:41:04;14.50;99.90
9973;DHT22;5027;53.560;10.062;2023-05-07T00:43:31;14.60;99.90
9973;DHT22;5027;53.560;10.062;2023-05-07T00:45:58;14.50;99.90
9973;DHT22;5027;53.560;10.062;2023-05-07T00:48:25;14.50;99.90
9973;DHT22;5027;53.560;10.062;2023-05-07T00:50:52;14.50;99.90
9973;DHT22;5027;53.560;10.062;2023-05-07T00:53:20;14.50;99.90
9973;DHT22;5027;53.560;10.062;2023-05-07T00:55:47;14.40;99.90
9973;DHT22;5027;53.560;10.062;2023-05-07T00:58:14;14.40;99.90
9973;DHT22;5027;53.560;10.062;2023-05-07T01:00:41;14.50;99.90
9973;DHT22;5027;53.560;10.062;2023-05-07T01:03:08;14.50;99.90
9973;DHT22;5027;53.560;10.062;2023-05-07T01:05:35;14.40;99.90
9973;DHT22;5027;53.560;10.062;2023-05-07T01:08:03;14.50;99.90
9973;DHT22;5027;53.560;10.062;2023-05-07T01:10:30;14.50;99.90
9973;DHT22;5027;53.560;10.062;2023-05-07T01:12:58;14.40;99.90
9973;DHT22;5027;53.560;10.062;2023-05-07T01:15:25;14.40;99.90
9973;DHT22;5027;53.560;10.062;2023-05-07T01:17:52;14.40;99.90
9973;DHT22;5027;53.560;10.062;2023-05-07T01:20:27;14.40;99.90
9973;DHT22;5027;53.560;10.062;2023-05-07T01:22:56;14.40;99.90
9973;DHT22;5027;53.560;10.062;2023-05-07T01:25:24;14.40;99.90
9973;DHT22;5027;53.560;10.062;2023-05-07T01:27:53;14.40;99.90
9973;DHT22;5027;53.560;10.062;2023-05-07T01:30:24;14.50;99.90
9973;DHT22;5027;53.560;10.062;2023-05-07T01:32:57;14.50;99.90
9973;DHT22;5027;53.560;10.062;2023-05-07T01:35:32;14.40;99.90
9973;DHT22;5027;53.560;10.062;2023-05-07T01:38:00;14.40;99.90
9973;DHT22;5027;53.560;10.062;2023-05-07T01:40:30;14.40;99.90
9973;DHT22;5027;53.560;10.062;2023-05-07T01:42:57;14.40;99.90
9973;DHT22;5027;53.560;10.062;2023-05-07T01:45:24;14.40;99.90
9973;DHT22;5027;53.560;10.062;2023-05-07T01:47:52;14.40;99.90
9973;DHT22;5027;53.560;10.062;2023-05-07T01:50:19;14.40;99.90
9973;DHT22;5027;53.560;10.062;2023-05-07T01:52:47;14.40;99.90
9973;DHT22;5027;53.560;10.062;2023-05-07T01:55:15;14.40;99.90
9973;DHT22;5027;53.560;10.062;2023-05-07T01:57:42;14.40;99.90
9973;DHT22;5027;53.560;10.062;2023-05-07T02:00:09;14.30;99.90
9973;DHT22;5027;53.560;10.062;2023-05-07T02:02:43;14.40;99.90
9973;DHT22;5027;53.560;10.062;2023-05-07T02:05:21;14.40;99.90
9973;DHT22;5027;53.560;10.062;2023-05-07T02:07:55;14.40;99.90
9973;DHT22;5027;53.560;10.062;2023-05-07T02:10:22;14.40;99.90
9973;DHT22;5027;53.560;10.062;2023-05-07T02:12:48;14.40;99.90
9973;DHT22;5027;53.560;10.062;2023-05-07T02:15:15;14.30;99.90
9973;DHT22;5027;53.560;10.062;2023-05-07T02:18:05;14.30;99.90
9973;DHT22;5027;53.560;10.062;2023-05-07T02:20:33;14.40;99.90
9973;DHT22;5027;53.560;10.062;2023-05-07T02:23:00;14.30;99.90
9973;DHT22;5027;53.560;10.062;2023-05-07T02:25:28;14.40;99.90
9973;DHT22;5027;53.560;10.062;2023-05-07T02:27:56;14.20;99.90
9973;DHT22;5027;53.560;10.062;2023-05-07T02:30:33;14.10;99.90
9973;DHT22;5027;53.560;10.062;2023-05-07T02:33:01;14.20;99.90
9973;DHT22;5027;53.560;10.062;2023-05-07T02:35:28;14.20;99.90
9973;DHT22;5027;53.560;10.062;2023-05-07T02:37:54;14.20;99.90
9973;DHT22;5027;53.560;10.062;2023-05-07T02:40:24;14.30;99.90
9973;DHT22;5027;53.560;10.062;2023-05-07T02:42:50;14.30;99.90
9973;DHT22;5027;53.560;10.062;2023-05-07T02:45:17;14.20;99.90
9973;DHT22;5027;53.560;10.062;2023-05-07T02:47:45;14.20;99.90
9973;DHT22;5027;53.560;10.062;2023-05-07T02:50:13;14.10;99.90
9973;DHT22;5027;53.560;10.062;2023-05-07T02:52:39;14.10;99.90
9973;DHT22;5027;53.560;10.062;2023-05-07T02:55:06;14.20;99.90
9973;DHT22;5027;53.560;10.062;2023-05-07T02:57:36;14.30;99.90
9973;DHT22;5027;53.560;10.062;2023-05-07T03:00:15;14.30;99.90
9973;DHT22;5027;53.560;10.062;2023-05-07T03:02:49;14.40;99.90
9973;DHT22;5027;53.560;10.062;2023-05-07T03:05:16;14.30;99.90
9973;DHT22;5027;53.560;10.062;2023-05-07T03:07:43;14.30;99.90
9973;DHT22;5027;53.560;10.062;2023-05-07T03:10:12;14.30;99.90
9973;DHT22;5027;53.560;10.062;2023-05-07T03:12:39;14.10;99.90
9973;DHT22;5027;53.560;10.062;2023-05-07T03:15:07;14.00;99.90
9973;DHT22;5027;53.560;10.062;2023-05-07T03:17:34;14.00;99.90
9973;DHT22;5027;53.560;10.062;2023-05-07T03:20:01;14.10;99.90
9973;DHT22;5027;53.560;10.062;2023-05-07T03:22:29;14.20;99.90
9973;DHT22;5027;53.560;10.062;2023-05-07T03:24:55;14.30;99.90
9973;DHT22;5027;53.560;10.062;2023-05-07T03:27:22;14.20;99.90
9973;DHT22;5027;53.560;10.062;2023-05-07T03:29:51;14.30;99.90
9973;DHT22;5027;53.560;10.062;2023-05-07T03:32:19;14.20;99.90
9973;DHT22;5027;53.560;10.062;2023-05-07T03:34:47;14.20;99.90
9973;DHT22;5027;53.560;10.062;2023-05-07T03:37:14;14.30;99.90
9973;DHT22;5027;53.560;10.062;2023-05-07T03:39:41;14.30;99.90
9973;DHT22;5027;53.560;10.062;2023-05-07T03:42:09;14.40;99.90
9973;DHT22;5027;53.560;10.062;2023-05-07T03:44:36;14.30;99.90
9973;DHT22;5027;53.560;10.062;2023-05-07T03:47:04;14.30;99.90
9973;DHT22;5027;53.560;10.062;2023-05-07T03:49:31;14.30;99.90
9973;DHT22;5027;53.560;10.062;2023-05-07T03:51:59;14.20;99.90
9973;DHT22;5027;53.560;10.062;2023-05-07T03:54:26;14.20;99.90
9973;DHT22;5027;53.560;10.062;2023-05-07T03:56:52;14.20;99.90
9973;DHT22;5027;53.560;10.062;2023-05-07T03:59:20;14.20;99.90
9973;DHT22;5027;53.560;10.062;2023-05-07T04:01:47;14.20;99.90
9973;DHT22;5027;53.560;10.062;2023-05-07T04:04:17;14.20;99.90
9973;DHT22;5027;53.560;10.062;2023-05-07T04:06:44;14.20;99.90
9973;DHT22;5027;53.560;10.062;2023-05-07T04:09:12;14.30;99.90
9973;DHT22;5027;53.560;10.062;2023-05-07T04:11:39;14.30;99.90
9973;DHT22;5027;53.560;10.062;2023-05-07T04:14:08;14.30;99.90
9973;DHT22;5027;53.560;10.062;2023-05-07T04:16:35;14.30;99.90
9973;DHT22;5027;53.560;10.062;2023-05-07T04:19:03;14.40;99.90
9973;DHT22;5027;53.560;10.062;2023-05-07T04:21:31;14.20;99.90
9973;DHT22;5027;53.560;10.062;2023-05-07T04:23:58;14.20;99.90
9973;DHT22;5027;53.560;10.062;2023-05-07T04:26:25;14.30;99.90
9973;DHT22;5027;53.560;10.062;2023-05-07T04:28:51;14.20;99.90
9973;DHT22;5027;53.560;10.062;2023-05-07T04:31:18;14.30;99.90
9973;DHT22;5027;53.560;10.062;2023-05-07T04:33:49;14.30;99.90
9973;DHT22;5027;53.560;10.062;2023-05-07T04:36:17;14.30;99.90
9973;DHT22;5027;53.560;10.062;2023-05-07T04:38:53;14.30;99.90
9973;DHT22;5027;53.560;10.062;2023-05-07T04:41:20;14.30;99.90
9973;DHT22;5027;53.560;10.062;2023-05-07T04:43:47;14.20;99.90
9973;DHT22;5027;53.560;10.062;2023-05-07T04:46:16;14.20;99.90
9973;DHT22;5027;53.560;10.062;2023-05-07T04:48:43;14.20;99.90
9973;DHT22;5027;53.560;10.062;2023-05-07T04:51:10;14.30;99.90
9973;DHT22;5027;53.560;10.062;2023-05-07T04:53:37;14.20;99.90
9973;DHT22;5027;53.560;10.062;2023-05-07T04:56:04;14.20;99.90
9973;DHT22;5027;53.560;10.062;2023-05-07T04:58:38;14.20;99.90
9973;DHT22;5027;53.560;10.062;2023-05-07T05:01:04;14.30;99.90
9973;DHT22;5027;53.560;10.062;2023-05-07T05:03:31;14.20;99.90
9973;DHT22;5027;53.560;10.062;2023-05-07T05:05:58;14.30;99.90
9973;DHT22;5027;53.560;10.062;2023-05-07T05:08:30;14.30;99.90
9973;DHT22;5027;53.560;10.062;2023-05-07T05:10:57;14.30;99.90
9973;DHT22;5027;53.560;10.062;2023-05-07T05:13:24;14.10;99.90
9973;DHT22;5027;53.560;10.062;2023-05-07T05:15:51;14.20;99.90
9973;DHT22;5027;53.560;10.062;2023-05-07T05:18:18;14.20;99.90
9973;DHT22;5027;53.560;10.062;2023-05-07T05:20:45;14.20;99.90
9973;DHT22;5027;53.560;10.062;2023-05-07T05:23:12;14.30;99.90
9973;DHT22;5027;53.560;10.062;2023-05-07T05:25:39;14.30;99.90
9973;DHT22;5027;53.560;10.062;2023-05-07T05:28:09;14.40;99.90
9973;DHT22;5027;53.560;10.062;2023-05-07T05:30:36;14.40;99.90
9973;DHT22;5027;53.560;10.062;2023-05-07T05:33:02;14.40;99.90
9973;DHT22;5027;53.560;10.062;2023-05-07T05:35:30;14.30;99.90
9973;DHT22;5027;53.560;10.062;2023-05-07T05:37:58;14.30;99.90
9973;DHT22;5027;53.560;10.062;2023-05-07T05:40:25;14.20;99.90
9973;DHT22;5027;53.560;10.062;2023-05-07T05:42:51;14.20;99.90
9973;DHT22;5027;53.560;10.062;2023-05-07T05:45:19;14.20;99.90
9973;DHT22;5027;53.560;10.062;2023-05-07T05:47:45;14.30;99.90
9973;DHT22;5027;53.560;10.062;2023-05-07T05:50:13;14.30;99.90
9973;DHT22;5027;53.560;10.062;2023-05-07T05:52:39;14.30;99.90
9973;DHT22;5027;53.560;10.062;2023-05-07T05:55:08;14.30;99.90
9973;DHT22;5027;53.560;10.062;2023-05-07T05:57:37;14.30;99.90
9973;DHT22;5027;53.560;10.062;2023-05-07T06:00:04;14.30;99.90
9973;DHT22;5027;53.560;10.062;2023-05-07T06:02:32;14.30;99.90
9973;DHT22;5027;53.560;10.062;2023-05-07T06:04:59;14.30;99.90
9973;DHT22;5027;53.560;10.062;2023-05-07T06:07:26;14.30;99.90
9973;DHT22;5027;53.560;10.062;2023-05-07T06:09:53;14.40;99.90
9973;DHT22;5027;53.560;10.062;2023-05-07T06:12:20;14.30;99.90
9973;DHT22;5027;53.560;10.062;2023-05-07T06:14:48;14.20;99.90
9973;DHT22;5027;53.560;10.062;2023-05-07T06:17:15;14.20;99.90
9973;DHT22;5027;53.560;10.062;2023-05-07T06:19:44;14.30;99.90
9973;DHT22;5027;53.560;10.062;2023-05-07T06:22:12;14.30;99.90
9973;DHT22;5027;53.560;10.062;2023-05-07T06:24:38;14.30;99.90
9973;DHT22;5027;53.560;10.062;2023-05-07T06:27:07;14.20;99.90
9973;DHT22;5027;53.560;10.062;2023-05-07T06:29:34;14.30;99.90
9973;DHT22;5027;53.560;10.062;2023-05-07T06:32:09;14.30;99.90
9973;DHT22;5027;53.560;10.062;2023-05-07T06:34:39;14.30;99.90
9973;DHT22;5027;53.560;10.062;2023-05-07T06:37:06;14.40;99.90
9973;DHT22;5027;53.560;10.062;2023-05-07T06:39:46;14.30;99.90
9973;DHT22;5027;53.560;10.062;2023-05-07T06:42:13;14.30;99.90
9973;DHT22;5027;53.560;10.062;2023-05-07T06:44:42;14.30;99.90
9973;DHT22;5027;53.560;10.062;2023-05-07T06:47:15;14.30;99.90
9973;DHT22;5027;53.560;10.062;2023-05-07T06:49:44;14.30;99.90
9973;DHT22;5027;53.560;10.062;2023-05-07T06:52:15;14.30;99.90
9973;DHT22;5027;53.560;10.062;2023-05-07T06:54:42;14.40;99.90
9973;DHT22;5027;53.560;10.062;2023-05-07T06:57:08;14.20;99.90
9973;DHT22;5027;53.560;10.062;2023-05-07T06:59:35;14.30;99.90
9973;DHT22;5027;53.560;10.062;2023-05-07T07:02:01;14.30;99.90
9973;DHT22;5027;53.560;10.062;2023-05-07T07:04:29;14.40;99.90
9973;DHT22;5027;53.560;10.062;2023-05-07T07:07:03;14.30;99.90
9973;DHT22;5027;53.560;10.062;2023-05-07T07:09:30;14.30;99.90
9973;DHT22;5027;53.560;10.062;2023-05-07T07:11:59;14.30;99.90
9973;DHT22;5027;53.560;10.062;2023-05-07T07:14:26;14.40;99.90
9973;DHT22;5027;53.560;10.062;2023-05-07T07:16:54;14.50;99.90
9973;DHT22;5027;53.560;10.062;2023-05-07T07:19:22;14.40;99.90
9973;DHT22;5027;53.560;10.062;2023-05-07T07:21:51;14.40;99.90
9973;DHT22;5027;53.560;10.062;2023-05-07T07:24:18;14.30;99.90
9973;DHT22;5027;53.560;10.062;2023-05-07T07:26:51;14.20;99.90
9973;DHT22;5027;53.560;10.062;2023-05-07T07:29:19;14.30;99.90
9973;DHT22;5027;53.560;10.062;2023-05-07T07:31:48;14.30;99.90
9973;DHT22;5027;53.560;10.062;2023-05-07T07:34:17;14.30;99.90
9973;DHT22;5027;53.560;10.062;2023-05-07T07:36:44;14.30;99.90
9973;DHT22;5027;53.560;10.062;2023-05-07T07:39:15;14.70;99.90
9973;DHT22;5027;53.560;10.062;2023-05-07T07:41:43;14.70;99.90
9973;DHT22;5027;53.560;10.062;2023-05-07T07:44:11;14.60;99.90
9973;DHT22;5027;53.560;10.062;2023-05-07T07:46:43;14.50;99.90
9973;DHT22;5027;53.560;10.062;2023-05-07T07:49:10;14.40;99.90
9973;DHT22;5027;53.560;10.062;2023-05-07T07:51:37;14.40;99.90
9973;DHT22;5027;53.560;10.062;2023-05-07T07:54:04;14.40;99.90
9973;DHT22;5027;53.560;10.062;2023-05-07T07:56:33;14.40;99.90
9973;DHT22;5027;53.560;10.062;2023-05-07T07:59:02;14.50;99.90
9973;DHT22;5027;53.560;10.062;2023-05-07T08:01:30;14.50;99.90
9973;DHT22;5027;53.560;10.062;2023-05-07T08:03:58;14.40;99.90
9973;DHT22;5027;53.560;10.062;2023-05-07T08:06:26;14.40;99.90
9973;DHT22;5027;53.560;10.062;2023-05-07T08:08:54;14.50;99.90
9973;DHT22;5027;53.560;10.062;2023-05-07T08:11:21;14.50;99.90
9973;DHT22;5027;53.560;10.062;2023-05-07T08:13:49;14.50;99.90
9973;DHT22;5027;53.560;10.062;2023-05-07T08:16:15;14.50;99.90
9973;DHT22;5027;53.560;10.062;2023-05-07T08:18:43;14.50;99.90
9973;DHT22;5027;53.560;10.062;2023-05-07T08:21:09;14.50;99.90
9973;DHT22;5027;53.560;10.062;2023-05-07T08:23:36;14.50;99.90
9973;DHT22;5027;53.560;10.062;2023-05-07T08:26:03;14.50;99.90
9973;DHT22;5027;53.560;10.062;2023-05-07T08:28:31;14.60;99.90
9973;DHT22;5027;53.560;10.062;2023-05-07T08:30:58;14.60;99.90
9973;DHT22;5027;53.560;10.062;2023-05-07T08:33:30;14.70;99.90
9973;DHT22;5027;53.560;10.062;2023-05-07T08:35:57;14.70;99.90
9973;DHT22;5027;53.560;10.062;2023-05-07T08:38:24;14.70;99.90
9973;DHT22;5027;53.560;10.062;2023-05-07T08:40:52;14.60;99.90
9973;DHT22;5027;53.560;10.062;2023-05-07T08:43:20;14.60;99.90
9973;DHT22;5027;53.560;10.062;2023-05-07T08:45:49;14.50;99.90
9973;DHT22;5027;53.560;10.062;2023-05-07T08:48:22;14.50;99.90
9973;DHT22;5027;53.560;10.062;2023-05-07T08:50:58;14.60;99.90
9973;DHT22;5027;53.560;10.062;2023-05-07T08:53:26;14.60;99.90
9973;DHT22;5027;53.560;10.062;2023-05-07T08:55:53;14.50;99.90
9973;DHT22;5027;53.560;10.062;2023-05-07T08:58:20;14.40;99.90
9973;DHT22;5027;53.560;10.062;2023-05-07T09:00:47;14.40;99.90
9973;DHT22;5027;53.560;10.062;2023-05-07T09:03:14;14.50;99.90
9973;DHT22;5027;53.560;10.062;2023-05-07T09:05:45;14.50;99.90
9973;DHT22;5027;53.560;10.062;2023-05-07T09:08:15;14.50;99.90
9973;DHT22;5027;53.560;10.062;2023-05-07T09:10:44;14.50;99.90
9973;DHT22;5027;53.560;10.062;2023-05-07T09:13:11;14.40;99.90
9973;DHT22;5027;53.560;10.062;2023-05-07T09:15:41;14.40;99.90
9973;DHT22;5027;53.560;10.062;2023-05-07T09:18:08;14.30;99.90
9973;DHT22;5027;53.560;10.062;2023-05-07T09:20:38;14.40;99.90
9973;DHT22;5027;53.560;10.062;2023-05-07T09:23:06;14.50;99.90
9973;DHT22;5027;53.560;10.062;2023-05-07T09:25:35;14.50;99.90
9973;DHT22;5027;53.560;10.062;2023-05-07T09:28:07;14.40;99.90
9973;DHT22;5027;53.560;10.062;2023-05-07T09:30:36;14.40;99.90
9973;DHT22;5027;53.560;10.062;2023-05-07T09:33:06;14.50;99.90
9973;DHT22;5027;53.560;10.062;2023-05-07T09:35:37;14.50;99.90
9973;DHT22;5027;53.560;10.062;2023-05-07T09:38:09;14.50;99.90
9973;DHT22;5027;53.560;10.062;2023-05-07T09:40:36;14.50;99.90
9973;DHT22;5027;53.560;10.062;2023-05-07T09:43:09;14.60;99.90
9973;DHT22;5027;53.560;10.062;2023-05-07T09:45:41;14.50;99.90
9973;DHT22;5027;53.560;10.062;2023-05-07T09:48:09;14.40;99.90
9973;DHT22;5027;53.560;10.062;2023-05-07T09:50:49;14.50;99.90
9973;DHT22;5027;53.560;10.062;2023-05-07T09:53:21;14.50;99.90
9973;DHT22;5027;53.560;10.062;2023-05-07T09:55:51;14.40;99.90
9973;DHT22;5027;53.560;10.062;2023-05-07T09:58:20;14.40;99.90
9973;DHT22;5027;53.560;10.062;2023-05-07T10:00:50;14.30;99.90
9973;DHT22;5027;53.560;10.062;2023-05-07T10:03:19;14.30;99.90
9973;DHT22;5027;53.560;10.062;2023-05-07T10:05:56;14.40;99.90
9973;DHT22;5027;53.560;10.062;2023-05-07T10:08:24;14.40;99.90
9973;DHT22;5027;53.560;10.062;2023-05-07T10:10:55;14.50;99.90
9973;DHT22;5027;53.560;10.062;2023-05-07T10:13:24;14.60;99.90
9973;DHT22;5027;53.560;10.062;2023-05-07T10:15:55;14.50;99.90
9973;DHT22;5027;53.560;10.062;2023-05-07T10:18:24;14.40;99.90
9973;DHT22;5027;53.560;10.062;2023-05-07T10:21:06;14.50;99.90
9973;DHT22;5027;53.560;10.062;2023-05-07T10:23:34;14.60;99.90
9973;DHT22;5027;53.560;10.062;2023-05-07T10:26:04;14.60;99.90
9973;DHT22;5027;53.560;10.062;2023-05-07T10:28:36;14.70;99.90
9973;DHT22;5027;53.560;10.062;2023-05-07T10:33:42;14.70;99.90
9973;DHT22;5027;53.560;10.062;2023-05-07T10:36:11;14.70;99.90
9973;DHT22;5027;53.560;10.062;2023-05-07T10:38:38;14.80;99.90
9973;DHT22;5027;53.560;10.062;2023-05-07T10:41:07;14.90;99.90
9973;DHT22;5027;53.560;10.062;2023-05-07T10:43:42;14.90;99.90
9973;DHT22;5027;53.560;10.062;2023-05-07T10:46:16;15.00;99.90
9973;DHT22;5027;53.560;10.062;2023-05-07T10:51:37;15.10;99.90
9973;DHT22;5027;53.560;10.062;2023-05-07T10:54:21;15.10;99.90
9973;DHT22;5027;53.560;10.062;2023-05-07T10:57:35;15.00;99.90
9973;DHT22;5027;53.560;10.062;2023-05-07T11:03:08;15.10;99.90
9973;DHT22;5027;53.560;10.062;2023-05-07T11:05:44;15.10;99.90
9973;DHT22;5027;53.560;10.062;2023-05-07T11:08:19;15.10;99.90
9973;DHT22;5027;53.560;10.062;2023-05-07T11:10:57;15.10;99.90
9973;DHT22;5027;53.560;10.062;2023-05-07T11:13:45;15.10;99.90
9973;DHT22;5027;53.560;10.062;2023-05-07T11:16:24;15.10;99.50
9973;DHT22;5027;53.560;10.062;2023-05-07T11:19:03;15.10;99.80
9973;DHT22;5027;53.560;10.062;2023-05-07T11:21:37;15.20;99.70
9973;DHT22;5027;53.560;10.062;2023-05-07T11:24:17;15.30;99.80
9973;DHT22;5027;53.560;10.062;2023-05-07T11:26:51;15.20;99.60
9973;DHT22;5027;53.560;10.062;2023-05-07T11:29:21;15.20;99.80
9973;DHT22;5027;53.560;10.062;2023-05-07T11:31:55;15.30;99.90
9973;DHT22;5027;53.560;10.062;2023-05-07T11:34:26;15.30;99.60
9973;DHT22;5027;53.560;10.062;2023-05-07T11:36:55;15.30;99.60
9973;DHT22;5027;53.560;10.062;2023-05-07T11:39:35;15.30;99.30
9973;DHT22;5027;53.560;10.062;2023-05-07T11:42:02;15.30;99.90
9973;DHT22;5027;53.560;10.062;2023-05-07T11:44:45;15.30;99.90
9973;DHT22;5027;53.560;10.062;2023-05-07T11:47:19;15.30;99.40
9973;DHT22;5027;53.560;10.062;2023-05-07T11:49:48;15.30;99.50
9973;DHT22;5027;53.560;10.062;2023-05-07T11:52:17;15.30;99.70
9973;DHT22;5027;53.560;10.062;2023-05-07T11:54:51;15.40;99.70
9973;DHT22;5027;53.560;10.062;2023-05-07T11:57:17;15.60;99.90
9973;DHT22;5027;53.560;10.062;2023-05-07T11:59:44;15.70;99.90
9973;DHT22;5027;53.560;10.062;2023-05-07T12:02:13;15.80;99.90
9973;DHT22;5027;53.560;10.062;2023-05-07T12:04:41;15.80;99.40
9973;DHT22;5027;53.560;10.062;2023-05-07T12:07:12;15.90;99.50
9973;DHT22;5027;53.560;10.062;2023-05-07T12:09:40;15.90;99.70
9973;DHT22;5027;53.560;10.062;2023-05-07T12:12:08;16.00;99.70
9973;DHT22;5027;53.560;10.062;2023-05-07T12:14:42;16.00;99.50
9973;DHT22;5027;53.560;10.062;2023-05-07T12:17:11;16.00;99.70
9973;DHT22;5027;53.560;10.062;2023-05-07T12:19:41;16.10;99.50
9973;DHT22;5027;53.560;10.062;2023-05-07T12:22:08;16.10;99.50
9973;DHT22;5027;53.560;10.062;2023-05-07T12:24:49;16.00;99.40
9973;DHT22;5027;53.560;10.062;2023-05-07T12:27:17;16.10;99.50
9973;DHT22;5027;53.560;10.062;2023-05-07T12:29:49;16.00;99.30
9973;DHT22;5027;53.560;10.062;2023-05-07T12:32:20;16.00;99.70
9973;DHT22;5027;53.560;10.062;2023-05-07T12:34:50;16.00;99.30
9973;DHT22;5027;53.560;10.062;2023-05-07T12:37:24;16.00;99.90
9973;DHT22;5027;53.560;10.062;2023-05-07T12:40:08;16.10;99.90
9973;DHT22;5027;53.560;10.062;2023-05-07T12:42:36;16.10;99.60
9973;DHT22;5027;53.560;10.062;2023-05-07T12:45:10;16.10;99.40
9973;DHT22;5027;53.560;10.062;2023-05-07T12:47:37;16.10;99.30
9973;DHT22;5027;53.560;10.062;2023-05-07T12:50:07;16.00;99.00
9973;DHT22;5027;53.560;10.062;2023-05-07T12:52:34;16.10;99.30
9973;DHT22;5027;53.560;10.062;2023-05-07T12:55:05;16.10;99.20
9973;DHT22;5027;53.560;10.062;2023-05-07T12:57:41;16.10;99.50
9973;DHT22;5027;53.560;10.062;2023-05-07T13:00:08;16.10;99.40
9973;DHT22;5027;53.560;10.062;2023-05-07T13:02:40;16.10;99.20
9973;DHT22;5027;53.560;10.062;2023-05-07T13:05:08;16.20;99.30
9973;DHT22;5027;53.560;10.062;2023-05-07T13:07:35;16.20;99.50
9973;DHT22;5027;53.560;10.062;2023-05-07T13:10:04;16.20;99.10
9973;DHT22;5027;53.560;10.062;2023-05-07T13:12:30;16.20;99.40
9973;DHT22;5027;53.560;10.062;2023-05-07T13:14:57;16.30;99.40
9973;DHT22;5027;53.560;10.062;2023-05-07T13:17:25;16.30;99.40
9973;DHT22;5027;53.560;10.062;2023-05-07T13:19:52;16.40;99.70
9973;DHT22;5027;53.560;10.062;2023-05-07T13:22:18;16.40;99.50
9973;DHT22;5027;53.560;10.062;2023-05-07T13:24:45;16.40;99.10
9973;DHT22;5027;53.560;10.062;2023-05-07T13:27:12;16.40;99.40
9973;DHT22;5027;53.560;10.062;2023-05-07T13:29:38;16.50;99.50
9973;DHT22;5027;53.560;10.062;2023-05-07T13:32:05;16.50;99.50
9973;DHT22;5027;53.560;10.062;2023-05-07T13:34:32;16.50;99.30
9973;DHT22;5027;53.560;10.062;2023-05-07T13:36:59;16.60;98.80
9973;DHT22;5027;53.560;10.062;2023-05-07T13:39:28;16.50;99.60
9973;DHT22;5027;53.560;10.062;2023-05-07T13:41:54;16.60;99.50
9973;DHT22;5027;53.560;10.062;2023-05-07T13:44:21;16.60;99.20
9973;DHT22;5027;53.560;10.062;2023-05-07T13:46:48;16.60;99.10
9973;DHT22;5027;53.560;10.062;2023-05-07T13:49:15;16.60;99.30
9973;DHT22;5027;53.560;10.062;2023-05-07T13:51:41;16.70;99.40
9973;DHT22;5027;53.560;10.062;2023-05-07T13:54:08;16.70;98.90
9973;DHT22;5027;53.560;10.062;2023-05-07T13:56:35;16.70;98.70
9973;DHT22;5027;53.560;10.062;2023-05-07T13:59:01;16.70;98.80
9973;DHT22;5027;53.560;10.062;2023-05-07T14:01:28;16.70;98.50
9973;DHT22;5027;53.560;10.062;2023-05-07T14:03:56;16.70;98.80
9973;DHT22;5027;53.560;10.062;2023-05-07T14:06:24;16.70;98.40
9973;DHT22;5027;53.560;10.062;2023-05-07T14:08:51;16.70;98.00
9973;DHT22;5027;53.560;10.062;2023-05-07T14:11:18;16.70;98.10
9973;DHT22;5027;53.560;10.062;2023-05-07T14:13:45;16.70;98.10
9973;DHT22;5027;53.560;10.062;2023-05-07T14:16:12;16.70;98.30
9973;DHT22;5027;53.560;10.062;2023-05-07T14:18:38;16.70;98.40
9973;DHT22;5027;53.560;10.062;2023-05-07T14:21:05;16.70;98.40
9973;DHT22;5027;53.560;10.062;2023-05-07T14:23:36;16.80;98.90
9973;DHT22;5027;53.560;10.062;2023-05-07T14:26:03;16.80;98.70
9973;DHT22;5027;53.560;10.062;2023-05-07T14:28:29;16.80;98.90
9973;DHT22;5027;53.560;10.062;2023-05-07T14:30:56;16.80;99.20
9973;DHT22;5027;53.560;10.062;2023-05-07T14:33:23;16.80;98.50
9973;DHT22;5027;53.560;10.062;2023-05-07T14:35:49;16.80;99.10
9973;DHT22;5027;53.560;10.062;2023-05-07T14:38:16;16.80;99.10
9973;DHT22;5027;53.560;10.062;2023-05-07T14:40:44;16.80;99.10
9973;DHT22;5027;53.560;10.062;2023-05-07T14:43:10;16.90;99.40
9973;DHT22;5027;53.560;10.062;2023-05-07T14:45:37;16.90;99.90
9973;DHT22;5027;53.560;10.062;2023-05-07T14:48:04;17.00;99.10
9973;DHT22;5027;53.560;10.062;2023-05-07T14:50:31;17.00;98.50
9973;DHT22;5027;53.560;10.062;2023-05-07T14:52:58;17.00;99.00
9973;DHT22;5027;53.560;10.062;2023-05-07T14:55:27;16.90;99.20
9973;DHT22;5027;53.560;10.062;2023-05-07T14:57:55;16.90;99.10
9973;DHT22;5027;53.560;10.062;2023-05-07T15:00:22;16.90;99.30
9973;DHT22;5027;53.560;10.062;2023-05-07T15:02:48;16.90;98.70
9973;DHT22;5027;53.560;10.062;2023-05-07T15:05:15;16.90;99.00
9973;DHT22;5027;53.560;10.062;2023-05-07T15:07:43;16.90;98.00
9973;DHT22;5027;53.560;10.062;2023-05-07T15:10:11;16.90;97.80
9973;DHT22;5027;53.560;10.062;2023-05-07T15:12:38;16.90;97.90
9973;DHT22;5027;53.560;10.062;2023-05-07T15:15:05;16.90;98.30
9973;DHT22;5027;53.560;10.062;2023-05-07T15:17:32;16.80;98.50
9973;DHT22;5027;53.560;10.062;2023-05-07T15:19:59;16.90;98.30
9973;DHT22;5027;53.560;10.062;2023-05-07T15:22:26;16.90;98.20
9973;DHT22;5027;53.560;10.062;2023-05-07T15:24:53;16.90;98.20
9973;DHT22;5027;53.560;10.062;2023-05-07T15:27:21;16.90;98.00
9973;DHT22;5027;53.560;10.062;2023-05-07T15:29:48;16.80;97.70
9973;DHT22;5027;53.560;10.062;2023-05-07T15:32:15;16.80;98.20
9973;DHT22;5027;53.560;10.062;2023-05-07T15:34:41;16.80;98.00
9973;DHT22;5027;53.560;10.062;2023-05-07T15:37:08;16.90;98.10
9973;DHT22;5027;53.560;10.062;2023-05-07T15:39:35;16.90;97.90
9973;DHT22;5027;53.560;10.062;2023-05-07T15:42:02;16.80;97.90
9973;DHT22;5027;53.560;10.062;2023-05-07T15:44:29;16.80;98.50
9973;DHT22;5027;53.560;10.062;2023-05-07T15:47:01;16.80;98.30
9973;DHT22;5027;53.560;10.062;2023-05-07T15:49:27;16.80;97.90
9973;DHT22;5027;53.560;10.062;2023-05-07T15:51:54;16.80;97.90
9973;DHT22;5027;53.560;10.062;2023-05-07T15:54:21;16.80;98.10
9973;DHT22;5027;53.560;10.062;2023-05-07T15:56:49;16.80;97.70
9973;DHT22;5027;53.560;10.062;2023-05-07T15:59:16;16.80;97.90
9973;DHT22;5027;53.560;10.062;2023-05-07T16:01:43;16.80;98.10
9973;DHT22;5027;53.560;10.062;2023-05-07T16:04:11;16.80;98.00